Etusivu
METAR-TAF:

METAR-TAF

Lentoasemat :

Büchel, Saksa

Leveyspiiri: 50-10N, Pituuspiiri: 007-04E, korkeus merenpinnasta: 478 m

Tämänhetkinen sää

Tämä raportti tehtiin 13 minuuttia sitten, kello 05.20 UTC
Tuuli 3 kn koillisesta
Lämpötila 5°C
Kosteus 87%
Ilmanpaine 1028 hPa
Näkyvyys 10 km tai enemmän

METAR: ETSB 210520Z AUTO 04003KT 9999 // ////// 05/03 Q1028 ///

Aika: 07:33 (05:33 UTC)


TAF: puuttuu

Säähavainnot ja -ennusteet yli 4000 lentoasemalta (METAR- ja TAF-raportit).

Käytössä olevat sääasemat on merkitty karttaan keltaisilla ja punaisilla pisteillä.

Aseta hiiri pisteen päälle nähdäksesi sääaseman nimen.

Klikkaa sitten nähdäksesi säähavainnot ja -ennusteet.

Kartan vaihtaminen: klikkaa mustalla rastilla varustettuja vihreitä pisteitä, niin voit zoomata sisään; viivalla varustettua vihreää pistettä, niin voit zoomata ulos tai vihreitä nuolia, niin pääset viereisille kartoille.


METAR-TAF: